createdAt,value
2018-08-19T00:03:40.688Z,60.10
2018-08-19T00:07:44.039Z,60.10
2018-08-19T00:11:47.440Z,62.60
2018-08-19T00:15:51.404Z,63.50
2018-08-19T00:19:54.764Z,61.80
2018-08-19T00:23:58.129Z,60.60
2018-08-19T00:28:02.011Z,60.20
2018-08-19T00:32:05.827Z,59.90
2018-08-19T00:36:25.235Z,60.20
2018-08-19T00:40:28.608Z,63.80
2018-08-19T00:44:32.529Z,61.20
2018-08-19T00:48:35.868Z,61.30
2018-08-19T00:52:39.303Z,61.60
2018-08-19T00:56:51.014Z,61.90
2018-08-19T01:00:54.363Z,60.20
2018-08-19T01:04:57.758Z,62.50
2018-08-19T01:09:01.088Z,61.10
2018-08-19T01:13:05.459Z,60.50
2018-08-19T01:17:09.055Z,61.30
2018-08-19T01:21:12.447Z,61.10
2018-08-19T01:25:16.264Z,63.80
2018-08-19T01:29:35.032Z,60.30
2018-08-19T01:33:38.376Z,61.30
2018-08-19T01:37:41.992Z,62.80
2018-08-19T01:41:45.468Z,60.70
2018-08-19T01:45:48.825Z,61.30
2018-08-19T01:49:52.231Z,63.80
2018-08-19T01:53:55.568Z,63.80
2018-08-19T01:57:58.916Z,61.90
2018-08-19T02:02:04.417Z,62.50
2018-08-19T02:06:07.840Z,67.60
2018-08-19T02:10:11.211Z,64.50
2018-08-19T02:14:16.756Z,64.80
2018-08-19T02:18:20.970Z,65.40
2018-08-19T02:22:24.319Z,62.80
2018-08-19T02:26:30.208Z,61.70
2018-08-19T02:30:33.915Z,62.60
2018-08-19T02:34:40.249Z,63.40
2018-08-19T02:38:43.608Z,64.00
2018-08-19T02:42:47.044Z,62.30
2018-08-19T02:46:50.432Z,62.50
2018-08-19T02:50:53.775Z,66.70
2018-08-19T02:55:00.237Z,62.30
2018-08-19T02:59:03.645Z,63.30
2018-08-19T03:03:07.008Z,64.50
2018-08-19T03:07:10.335Z,67.50
2018-08-19T03:11:15.748Z,66.40
2018-08-19T03:15:19.096Z,63.30
2018-08-19T03:19:22.452Z,64.10
2018-08-19T03:23:25.815Z,63.90
2018-08-19T03:27:29.232Z,63.70
2018-08-19T03:31:32.762Z,64.40
2018-08-19T03:35:36.164Z,63.80
2018-08-19T03:39:39.505Z,64.50
2018-08-19T03:43:47.147Z,62.90
2018-08-19T03:47:52.226Z,63.60
2018-08-19T03:51:55.567Z,63.90
2018-08-19T03:55:58.924Z,64.30
2018-08-19T04:00:02.286Z,64.50
2018-08-19T04:04:05.683Z,65.50
2018-08-19T04:08:10.365Z,63.90
2018-08-19T04:12:16.235Z,63.40
2018-08-19T04:16:19.603Z,68.30
2018-08-19T04:20:23.033Z,63.80
2018-08-19T04:24:27.176Z,63.30
2018-08-19T04:28:30.560Z,63.90
2018-08-19T04:32:33.944Z,64.20
2018-08-19T04:36:37.356Z,65.10
2018-08-19T04:40:40.712Z,66.10
2018-08-19T04:44:44.056Z,67.00
2018-08-19T04:48:48.128Z,65.70
2018-08-19T04:52:51.481Z,65.30
2018-08-19T04:56:54.812Z,64.90
2018-08-19T05:00:58.220Z,66.40
2018-08-19T05:05:01.604Z,63.60
2018-08-19T05:09:07.659Z,64.40
2018-08-19T05:13:11.820Z,65.00
2018-08-19T05:17:15.167Z,63.60
2018-08-19T05:21:18.665Z,66.30
2018-08-19T05:25:22.042Z,65.00
2018-08-19T05:29:25.495Z,65.20
2018-08-19T05:33:28.985Z,65.20
2018-08-19T05:37:32.321Z,65.70
2018-08-19T05:41:35.690Z,64.80
2018-08-19T05:45:43.255Z,64.40
2018-08-19T05:49:47.567Z,64.70
2018-08-19T05:53:53.337Z,65.70
2018-08-19T05:57:56.687Z,64.30
2018-08-19T06:02:00.096Z,65.10
2018-08-19T06:06:03.467Z,64.10
2018-08-19T06:10:07.087Z,68.30
2018-08-19T06:14:10.440Z,63.50
2018-08-19T06:18:13.791Z,65.30
2018-08-19T06:22:17.178Z,67.80
2018-08-19T06:26:24.848Z,66.70
2018-08-19T06:30:28.544Z,67.20
2018-08-19T06:34:32.012Z,73.50
2018-08-19T06:38:35.272Z,68.80
2018-08-19T06:42:38.633Z,64.90
2018-08-19T06:46:41.983Z,66.70
2018-08-19T06:50:45.344Z,65.60
2018-08-19T06:54:48.752Z,66.00
2018-08-19T06:58:52.107Z,67.60
2018-08-19T07:02:57.267Z,71.00
2018-08-19T07:07:00.770Z,73.80
2018-08-19T07:11:04.176Z,67.60
2018-08-19T07:15:08.039Z,72.40
2018-08-19T07:19:11.412Z,65.60
2018-08-19T07:23:14.781Z,69.00
2018-08-19T07:27:18.137Z,69.60
2018-08-19T07:31:21.498Z,66.10
2018-08-19T07:35:24.846Z,70.40
2018-08-19T07:39:33.585Z,69.70
2018-08-19T07:43:36.943Z,70.60
2018-08-19T07:47:40.331Z,68.20
2018-08-19T07:51:44.047Z,68.10
2018-08-19T07:55:47.375Z,69.80
2018-08-19T08:03:54.176Z,93.80
2018-08-19T08:07:57.543Z,67.90
2018-08-19T08:12:00.871Z,68.60
2018-08-19T08:16:04.247Z,68.60
2018-08-19T08:20:08.351Z,67.90
2018-08-19T08:24:11.722Z,68.00
2018-08-19T08:28:15.075Z,66.90
2018-08-19T08:32:18.535Z,67.80
2018-08-19T08:36:21.891Z,67.40
2018-08-19T08:40:25.243Z,66.30
2018-08-19T08:44:29.339Z,66.50
2018-08-19T08:48:34.667Z,66.10
2018-08-19T08:52:41.990Z,66.00
2018-08-19T08:56:48.667Z,66.40
2018-08-19T09:00:53.556Z,66.00
2018-08-19T09:04:56.956Z,66.20
2018-08-19T09:09:00.361Z,65.30
2018-08-19T09:13:03.826Z,65.00
2018-08-19T09:17:07.300Z,64.80
2018-08-19T09:21:10.662Z,64.90
2018-08-19T09:25:14.082Z,64.70
2018-08-19T09:29:17.428Z,64.10
2018-08-19T09:33:20.756Z,63.50
2018-08-19T09:37:24.196Z,63.70
2018-08-19T09:41:27.577Z,63.20
2018-08-19T09:45:31.261Z,63.10
2018-08-19T09:49:35.219Z,61.70
2018-08-19T09:53:38.847Z,61.90
2018-08-19T09:57:47.575Z,61.70
2018-08-19T10:01:50.931Z,62.00
2018-08-19T10:05:54.297Z,61.00
2018-08-19T10:09:57.639Z,60.10
2018-08-19T10:14:03.343Z,60.00
2018-08-19T10:18:08.626Z,60.40
2018-08-19T10:22:12.044Z,59.90
2018-08-19T10:26:15.415Z,60.30
2018-08-19T10:30:21.711Z,59.00
2018-08-19T10:34:33.386Z,59.70
2018-08-19T10:38:38.821Z,58.50
2018-08-19T10:42:42.165Z,59.40
2018-08-19T10:46:45.506Z,59.00
2018-08-19T10:50:48.843Z,58.10
2018-08-19T10:54:52.267Z,57.80
2018-08-19T10:59:00.003Z,58.10
2018-08-19T11:03:11.515Z,57.70
2018-08-19T11:07:14.875Z,56.10
2018-08-19T11:11:18.404Z,57.10
2018-08-19T11:15:31.661Z,54.90
2018-08-19T11:28:27.220Z,57.70
2018-08-19T11:32:36.687Z,57.30
2018-08-19T11:36:44.398Z,56.10
2018-08-19T11:40:48.211Z,55.50
2018-08-19T11:44:53.778Z,55.30
2018-08-19T11:49:02.368Z,55.90
2018-08-19T11:53:07.542Z,55.80
2018-08-19T11:57:12.167Z,55.30
2018-08-19T12:01:20.405Z,55.30
2018-08-19T12:05:24.364Z,53.40
2018-08-19T12:09:27.726Z,54.10
2018-08-19T12:13:31.739Z,52.90
2018-08-19T12:17:36.929Z,54.20
2018-08-19T12:21:45.275Z,53.70
2018-08-19T12:25:50.598Z,54.00
2018-08-19T12:30:01.106Z,53.80
2018-08-19T12:34:08.538Z,52.70
2018-08-19T12:38:11.875Z,51.60
2018-08-19T12:42:15.263Z,52.30
2018-08-19T12:46:18.616Z,49.60
2018-08-19T12:50:22.061Z,52.30
2018-08-19T12:54:25.335Z,53.60
2018-08-19T12:58:29.214Z,54.10
2018-08-19T13:02:34.015Z,53.00
2018-08-19T13:06:54.971Z,53.20
2018-08-19T13:11:01.604Z,51.30
2018-08-19T13:15:05.923Z,51.40
2018-08-19T13:19:09.315Z,52.30
2018-08-19T13:23:12.737Z,50.50
2018-08-19T13:27:16.152Z,50.70
2018-08-19T13:31:23.832Z,49.40
2018-08-19T13:35:27.154Z,50.40
2018-08-19T13:39:30.520Z,50.20
2018-08-19T13:43:34.581Z,51.00
2018-08-19T13:47:38.083Z,49.90
2018-08-19T13:51:41.464Z,50.60
2018-08-19T13:55:44.812Z,49.00
2018-08-19T13:59:48.188Z,51.30
2018-08-19T14:03:51.537Z,51.30
2018-08-19T14:07:54.905Z,49.90
2018-08-19T14:11:58.284Z,49.00
2018-08-19T14:16:01.595Z,48.80
2018-08-19T14:20:06.151Z,51.50
2018-08-19T14:24:09.475Z,51.00
2018-08-19T14:28:12.811Z,49.60
2018-08-19T14:32:29.475Z,51.10
2018-08-19T14:36:32.778Z,48.60
2018-08-19T14:40:36.111Z,49.90
2018-08-19T14:44:39.454Z,50.00
2018-08-19T14:48:42.904Z,50.10
2018-08-19T14:52:46.260Z,48.80
2018-08-19T14:56:49.953Z,48.30
2018-08-19T15:00:53.588Z,49.90
2018-08-19T15:04:56.903Z,47.80
2018-08-19T15:09:00.246Z,46.30
2018-08-19T15:13:03.610Z,47.60
2018-08-19T15:17:08.230Z,49.50
2018-08-19T15:21:11.645Z,48.40
2018-08-19T15:25:14.963Z,48.60
2018-08-19T15:29:23.672Z,49.40
2018-08-19T15:33:27.024Z,49.10
2018-08-19T15:37:31.028Z,48.70
2018-08-19T15:41:34.365Z,48.00
2018-08-19T15:45:38.183Z,47.20
2018-08-19T15:49:41.843Z,48.40
2018-08-19T15:53:45.610Z,48.30
2018-08-19T15:57:48.950Z,45.70
2018-08-19T16:01:52.326Z,47.40
2018-08-19T16:05:55.675Z,49.70
2018-08-19T16:09:59.020Z,48.80
2018-08-19T16:14:06.213Z,46.90
2018-08-19T16:18:09.574Z,45.10
2018-08-19T16:22:12.972Z,43.50
2018-08-19T16:26:16.295Z,45.10
2018-08-19T16:30:20.440Z,44.70
2018-08-19T16:34:23.796Z,46.70
2018-08-19T16:38:27.187Z,44.10
2018-08-19T16:42:30.532Z,43.60
2018-08-19T16:46:33.910Z,46.60
2018-08-19T16:50:37.319Z,45.70
2018-08-19T16:54:40.599Z,43.30
2018-08-19T16:58:43.947Z,44.40
2018-08-19T17:02:47.446Z,45.60
2018-08-19T17:06:50.668Z,45.00
2018-08-19T17:10:54.032Z,45.90
2018-08-19T17:14:57.403Z,45.70
2018-08-19T17:19:00.736Z,46.10
2018-08-19T17:23:04.213Z,46.20
2018-08-19T17:27:12.556Z,46.80
2018-08-19T17:31:15.910Z,46.60
2018-08-19T17:35:19.443Z,46.60
2018-08-19T17:39:24.398Z,46.90
2018-08-19T17:43:33.300Z,47.20
2018-08-19T17:47:36.679Z,47.60
2018-08-19T17:51:40.039Z,47.20
2018-08-19T17:55:44.156Z,48.60
2018-08-19T17:59:47.603Z,48.20
2018-08-19T18:03:54.678Z,48.40
2018-08-19T18:07:58.018Z,48.20
2018-08-19T18:12:04.588Z,48.50
2018-08-19T18:16:11.651Z,48.70
2018-08-19T18:20:23.444Z,48.80
2018-08-19T18:24:26.832Z,49.00
2018-08-19T18:28:31.415Z,49.10
2018-08-19T18:32:35.335Z,49.30
2018-08-19T18:36:38.756Z,49.40
2018-08-19T18:40:42.215Z,49.60
2018-08-19T18:44:45.601Z,49.50
2018-08-19T18:48:52.129Z,49.70
2018-08-19T18:52:55.500Z,50.00
2018-08-19T18:57:00.267Z,50.20
2018-08-19T19:01:03.617Z,50.40
2018-08-19T19:05:07.692Z,50.40
2018-08-19T19:09:11.214Z,50.60
2018-08-19T19:13:14.891Z,50.60
2018-08-19T19:17:19.549Z,50.80
2018-08-19T19:21:26.836Z,50.90
2018-08-19T19:25:35.660Z,51.10
2018-08-19T19:29:39.012Z,50.80
2018-08-19T19:33:42.373Z,51.30
2018-08-19T19:37:45.815Z,51.50
2018-08-19T19:41:55.664Z,52.50
2018-08-19T19:45:59.044Z,51.80
2018-08-19T19:50:02.438Z,52.10
2018-08-19T19:54:06.202Z,51.80
2018-08-19T19:58:09.547Z,53.10
2018-08-19T20:02:22.518Z,52.20
2018-08-19T20:06:25.889Z,52.20
2018-08-19T20:10:32.985Z,52.10
2018-08-19T20:14:43.487Z,52.20
2018-08-19T20:18:46.899Z,52.30
2018-08-19T20:22:54.088Z,52.80
2018-08-19T20:26:57.520Z,53.70
2018-08-19T20:31:00.819Z,53.30
2018-08-19T20:35:04.656Z,53.00
2018-08-19T20:39:14.595Z,53.50
2018-08-19T20:43:22.147Z,54.20
2018-08-19T20:47:25.487Z,53.80
2018-08-19T20:51:28.964Z,54.70
2018-08-19T20:55:33.936Z,53.60
2018-08-19T20:59:38.215Z,54.00
2018-08-19T21:03:41.707Z,54.50
2018-08-19T21:07:45.066Z,53.60
2018-08-19T21:11:48.477Z,54.20
2018-08-19T21:15:53.717Z,53.70
2018-08-19T21:20:01.104Z,54.20
2018-08-19T21:24:04.451Z,54.30
2018-08-19T21:28:07.786Z,54.90
2018-08-19T21:32:11.098Z,56.60
2018-08-19T21:40:38.951Z,54.40
2018-08-19T21:44:42.144Z,55.70
2018-08-19T21:48:45.492Z,55.40
2018-08-19T21:53:11.639Z,56.00
2018-08-19T21:57:14.994Z,58.00
2018-08-19T22:01:26.579Z,55.90
2018-08-19T22:05:30.378Z,56.40
2018-08-19T22:09:35.506Z,55.70
2018-08-19T22:13:38.938Z,55.30
2018-08-19T22:17:42.281Z,55.70
2018-08-19T22:21:45.609Z,55.20
2018-08-19T22:25:49.148Z,55.80
2018-08-19T22:29:52.522Z,55.90
2018-08-19T22:33:57.155Z,56.20
2018-08-19T22:38:03.248Z,55.50
2018-08-19T22:42:10.947Z,56.40
2018-08-19T22:46:14.280Z,55.40
2018-08-19T22:50:17.627Z,58.20
2018-08-19T22:54:21.048Z,56.70
2018-08-19T22:58:24.373Z,55.90
2018-08-19T23:02:27.769Z,55.80
2018-08-19T23:06:33.429Z,55.70
2018-08-19T23:10:36.782Z,56.10
2018-08-19T23:14:51.419Z,56.10
2018-08-19T23:18:54.824Z,56.30
2018-08-19T23:22:58.139Z,55.90
2018-08-19T23:27:01.516Z,56.90
2018-08-19T23:31:04.894Z,56.70
2018-08-19T23:35:08.241Z,59.10
2018-08-19T23:39:11.562Z,56.00
2018-08-19T23:43:15.402Z,56.20
2018-08-19T23:47:18.811Z,56.60
2018-08-19T23:51:30.151Z,56.50
2018-08-19T23:55:38.242Z,57.80
2018-08-19T23:59:42.704Z,57.80
